createdAt,value
2022-08-03T00:01:55.915Z,21.47
2022-08-03T00:04:33.574Z,21.59
2022-08-03T00:07:04.757Z,21.71
2022-08-03T00:09:35.439Z,21.72
2022-08-03T00:12:06.694Z,21.65
2022-08-03T00:14:37.437Z,21.63
2022-08-03T00:17:09.601Z,21.63
2022-08-03T00:19:40.283Z,21.56
2022-08-03T00:22:11.058Z,21.49
2022-08-03T00:24:41.703Z,21.60
2022-08-03T00:27:12.466Z,21.59
2022-08-03T00:30:00.060Z,21.82
2022-08-03T00:32:33.061Z,21.80
2022-08-03T00:35:08.021Z,21.70
2022-08-03T00:37:40.641Z,21.76
2022-08-03T00:40:14.930Z,21.80
2022-08-03T00:42:54.561Z,21.79
2022-08-03T00:45:26.933Z,21.78
2022-08-03T00:48:00.087Z,21.89
2022-08-03T00:50:33.255Z,21.98
2022-08-03T00:53:05.988Z,22.00
2022-08-03T00:55:36.756Z,22.16
2022-08-03T00:58:08.848Z,22.16
2022-08-03T01:00:41.237Z,22.25
2022-08-03T01:03:14.426Z,22.33
2022-08-03T01:05:55.165Z,22.37
2022-08-03T01:08:35.492Z,22.36
2022-08-03T01:11:21.674Z,22.33
2022-08-03T01:14:18.099Z,22.31
2022-08-03T01:17:00.374Z,22.21
2022-08-03T01:19:49.482Z,22.03
2022-08-03T01:23:00.386Z,21.82
2022-08-03T01:25:50.672Z,21.76
2022-08-03T01:28:46.273Z,21.75
2022-08-03T01:31:28.923Z,21.62
2022-08-03T01:34:03.244Z,21.63
2022-08-03T01:36:38.995Z,21.72
2022-08-03T01:39:12.374Z,21.70
2022-08-03T01:41:50.774Z,21.60
2022-08-03T01:44:29.603Z,21.64
2022-08-03T01:47:04.125Z,21.80
2022-08-03T01:49:40.283Z,22.04
2022-08-03T01:52:11.801Z,22.36
2022-08-03T01:54:48.019Z,22.66
2022-08-03T01:57:19.287Z,22.77
2022-08-03T01:59:52.743Z,22.81
2022-08-03T02:02:33.044Z,22.79
2022-08-03T02:05:10.787Z,22.70
2022-08-03T02:07:44.616Z,22.54
2022-08-03T02:10:17.098Z,22.53
2022-08-03T02:13:08.693Z,22.33
2022-08-03T02:15:41.351Z,22.37
2022-08-03T02:18:14.709Z,22.23
2022-08-03T02:20:47.186Z,21.75
2022-08-03T02:23:19.193Z,21.99
2022-08-03T02:25:53.625Z,21.90
2022-08-03T02:28:25.194Z,21.89
2022-08-03T02:30:57.689Z,21.85
2022-08-03T02:33:33.059Z,21.76
2022-08-03T02:36:05.532Z,21.79
2022-08-03T02:38:39.468Z,21.93
2022-08-03T02:41:16.300Z,21.97
2022-08-03T02:44:06.084Z,22.19
2022-08-03T02:46:41.264Z,22.24
2022-08-03T02:49:40.711Z,22.34
2022-08-03T02:52:13.181Z,22.33
2022-08-03T02:54:49.171Z,22.35
2022-08-03T02:57:21.809Z,22.40
2022-08-03T02:59:54.341Z,22.47
2022-08-03T03:02:26.885Z,22.66
2022-08-03T03:05:54.836Z,22.91
2022-08-03T03:07:51.962Z,23.00
2022-08-03T03:10:25.430Z,22.95
2022-08-03T03:12:58.568Z,22.83
2022-08-03T03:15:32.007Z,22.77
2022-08-03T03:18:03.726Z,22.79
2022-08-03T03:20:37.208Z,22.98
2022-08-03T03:23:08.769Z,22.94
2022-08-03T03:25:40.448Z,23.03
2022-08-03T03:28:13.247Z,23.01
2022-08-03T03:30:43.937Z,22.89
2022-08-03T03:33:15.328Z,22.73
2022-08-03T03:35:49.745Z,22.61
2022-08-03T03:38:20.469Z,22.62
2022-08-03T03:40:51.359Z,22.44
2022-08-03T03:43:22.361Z,22.68
2022-08-03T03:45:54.495Z,22.63
2022-08-03T03:48:25.237Z,22.78
2022-08-03T03:50:58.167Z,22.80
2022-08-03T03:53:29.181Z,22.86
2022-08-03T03:56:02.602Z,22.90
2022-08-03T03:58:35.423Z,22.79
2022-08-03T04:01:06.161Z,22.82
2022-08-03T04:03:38.224Z,22.86
2022-08-03T04:06:27.276Z,22.75
2022-08-03T04:09:14.640Z,22.73
2022-08-03T04:11:50.131Z,22.62
2022-08-03T04:14:23.492Z,22.38
2022-08-03T04:16:59.229Z,22.23
2022-08-03T04:19:33.682Z,22.06
2022-08-03T04:22:10.733Z,21.98
2022-08-03T04:24:45.974Z,22.01
2022-08-03T04:27:19.475Z,22.05
2022-08-03T04:29:52.138Z,22.13
2022-08-03T04:32:27.090Z,22.45
2022-08-03T04:34:57.945Z,22.72
2022-08-03T04:37:36.145Z,22.95
2022-08-03T04:40:11.440Z,23.16
2022-08-03T04:42:45.819Z,23.32
2022-08-03T04:45:17.751Z,23.43
2022-08-03T04:47:48.739Z,23.60
2022-08-03T04:50:21.712Z,23.95
2022-08-03T04:52:54.253Z,24.29
2022-08-03T04:55:31.107Z,24.32
2022-08-03T04:58:02.387Z,24.26
2022-08-03T05:00:33.373Z,23.99
2022-08-03T05:03:04.078Z,23.87
2022-08-03T05:05:50.891Z,23.71
2022-08-03T05:08:27.891Z,23.57
2022-08-03T05:10:59.524Z,23.46
2022-08-03T05:13:30.314Z,23.43
2022-08-03T05:16:01.015Z,23.20
2022-08-03T05:18:31.749Z,23.04
2022-08-03T05:21:02.347Z,22.98
2022-08-03T05:23:34.591Z,22.90
2022-08-03T05:26:07.830Z,22.96
2022-08-03T05:28:38.466Z,22.92
2022-08-03T05:31:09.079Z,22.86
2022-08-03T05:33:40.223Z,22.63
2022-08-03T05:36:11.052Z,22.50
2022-08-03T05:38:43.758Z,22.51
2022-08-03T05:41:21.290Z,22.62
2022-08-03T05:43:55.194Z,22.50
2022-08-03T05:46:26.425Z,22.36
2022-08-03T05:48:57.099Z,22.23
2022-08-03T05:51:28.564Z,22.21
2022-08-03T05:54:00.827Z,22.15
2022-08-03T05:56:31.668Z,22.10
2022-08-03T05:59:22.399Z,22.22
2022-08-03T06:01:53.022Z,22.63
2022-08-03T06:04:23.778Z,22.74
2022-08-03T06:06:54.467Z,22.82
2022-08-03T06:09:31.854Z,22.53
2022-08-03T06:12:18.110Z,22.37
2022-08-03T06:14:49.447Z,22.22
2022-08-03T06:17:20.738Z,22.26
2022-08-03T06:19:51.894Z,22.35
2022-08-03T06:22:23.144Z,22.39
2022-08-03T06:25:04.947Z,22.48
2022-08-03T06:27:41.217Z,22.55
2022-08-03T06:30:16.986Z,22.54
2022-08-03T06:32:51.817Z,22.42
2022-08-03T06:35:24.070Z,22.22
2022-08-03T06:37:55.721Z,22.17
2022-08-03T06:40:32.383Z,22.10
2022-08-03T06:43:06.113Z,21.89
2022-08-03T06:45:40.562Z,21.93
2022-08-03T06:48:12.951Z,21.48
2022-08-03T06:50:45.601Z,21.73
2022-08-03T06:53:19.751Z,21.72
2022-08-03T06:55:54.861Z,21.61
2022-08-03T06:58:25.888Z,21.53
2022-08-03T07:00:56.835Z,21.49
2022-08-03T07:03:27.824Z,21.27
2022-08-03T07:05:58.914Z,21.35
2022-08-03T07:08:33.800Z,21.41
2022-08-03T07:11:07.027Z,21.37
2022-08-03T07:13:37.591Z,21.19
2022-08-03T07:16:08.732Z,21.13
2022-08-03T07:18:42.180Z,20.95
2022-08-03T07:21:13.922Z,20.82
2022-08-03T07:23:45.116Z,20.71
2022-08-03T07:26:17.967Z,20.67
2022-08-03T07:28:48.922Z,20.74
2022-08-03T07:31:20.184Z,20.78
2022-08-03T07:33:51.331Z,20.77
2022-08-03T07:36:22.540Z,20.72
2022-08-03T07:38:53.731Z,20.66
2022-08-03T07:41:26.669Z,20.60
2022-08-03T07:43:58.079Z,20.60
2022-08-03T07:46:29.422Z,20.50
2022-08-03T07:49:00.782Z,20.38
2022-08-03T07:51:32.621Z,20.25
2022-08-03T07:54:03.836Z,20.26
2022-08-03T07:56:36.714Z,20.19
2022-08-03T07:59:07.755Z,20.08
2022-08-03T08:01:39.074Z,19.92
2022-08-03T08:04:10.516Z,19.83
2022-08-03T08:06:41.861Z,19.74
2022-08-03T08:09:13.132Z,19.70
2022-08-03T08:11:46.348Z,19.61
2022-08-03T08:14:17.011Z,19.52
2022-08-03T08:16:48.799Z,19.42
2022-08-03T08:19:19.997Z,19.43
2022-08-03T08:22:02.408Z,19.43
2022-08-03T08:24:34.955Z,19.39
2022-08-03T08:27:09.662Z,19.34
2022-08-03T08:29:56.372Z,19.16
2022-08-03T08:32:29.564Z,19.23
2022-08-03T08:35:00.168Z,19.11
2022-08-03T08:37:30.799Z,19.03
2022-08-03T08:40:01.475Z,18.95
2022-08-03T08:42:34.790Z,18.85
2022-08-03T08:45:06.260Z,18.87
2022-08-03T08:47:50.963Z,18.88
2022-08-03T08:50:27.602Z,18.79
2022-08-03T08:53:03.131Z,18.77
2022-08-03T08:55:59.496Z,18.71
2022-08-03T08:58:28.885Z,18.79
2022-08-03T09:00:59.942Z,18.72
2022-08-03T09:03:31.062Z,18.69
2022-08-03T09:06:05.153Z,18.68
2022-08-03T09:08:36.552Z,18.63
2022-08-03T09:11:08.356Z,18.53
2022-08-03T09:13:44.613Z,18.42
2022-08-03T09:16:19.580Z,18.35
2022-08-03T09:18:52.987Z,18.36
2022-08-03T09:21:33.587Z,18.31
2022-08-03T09:24:10.257Z,18.29
2022-08-03T09:26:53.666Z,18.31
2022-08-03T09:29:26.380Z,18.29
2022-08-03T09:32:04.530Z,18.08
2022-08-03T09:34:35.370Z,18.18
2022-08-03T09:37:15.888Z,18.14
2022-08-03T09:39:46.937Z,18.14
2022-08-03T09:42:18.989Z,18.02
2022-08-03T09:44:56.266Z,18.00
2022-08-03T09:47:32.472Z,18.03
2022-08-03T09:50:04.613Z,18.01
2022-08-03T09:52:39.198Z,17.99
2022-08-03T09:56:33.567Z,17.98
2022-08-03T09:58:15.192Z,17.99
2022-08-03T10:01:04.491Z,17.97
2022-08-03T10:04:02.944Z,18.03
2022-08-03T10:06:29.066Z,17.96
2022-08-03T10:09:10.193Z,17.99
2022-08-03T10:11:42.411Z,18.02
2022-08-03T10:14:19.787Z,17.96
2022-08-03T10:16:52.726Z,17.90
2022-08-03T10:19:23.351Z,17.95
2022-08-03T10:21:58.730Z,17.95
2022-08-03T10:24:32.293Z,17.95
2022-08-03T10:27:05.757Z,17.97
2022-08-03T10:29:41.174Z,17.92
2022-08-03T10:32:18.678Z,17.85
2022-08-03T10:35:00.373Z,17.79
2022-08-03T10:37:40.089Z,17.77
2022-08-03T10:43:24.963Z,17.74
2022-08-03T10:45:55.802Z,17.71
2022-08-03T10:48:29.125Z,17.69
2022-08-03T10:50:59.864Z,17.70
2022-08-03T10:53:41.261Z,17.72
2022-08-03T10:57:12.402Z,17.72
2022-08-03T11:00:05.220Z,17.68
2022-08-03T11:03:12.897Z,17.63
2022-08-03T11:05:46.585Z,17.56
2022-08-03T11:08:31.090Z,17.17
2022-08-03T11:11:04.189Z,17.58
2022-08-03T11:13:35.195Z,17.62
2022-08-03T11:16:24.227Z,17.65
2022-08-03T11:19:02.760Z,17.60
2022-08-03T11:21:58.633Z,17.56
2022-08-03T11:25:05.566Z,17.52
2022-08-03T11:27:36.780Z,17.22
2022-08-03T11:30:10.768Z,17.40
2022-08-03T11:33:03.352Z,17.46
2022-08-03T11:35:36.555Z,17.44
2022-08-03T11:38:14.130Z,17.43
2022-08-03T11:40:47.458Z,17.45
2022-08-03T11:43:47.749Z,17.49
2022-08-03T11:46:29.640Z,17.46
2022-08-03T11:49:10.913Z,17.28
2022-08-03T11:51:42.222Z,17.33
2022-08-03T11:54:14.619Z,17.29
2022-08-03T11:56:49.429Z,17.34
2022-08-03T11:59:22.326Z,17.30
2022-08-03T12:01:53.662Z,17.40
2022-08-03T12:04:24.468Z,17.41
2022-08-03T12:07:05.132Z,17.40
2022-08-03T12:09:40.285Z,17.40
2022-08-03T12:12:11.208Z,17.39
2022-08-03T12:14:49.993Z,17.38
2022-08-03T12:17:22.534Z,17.37
2022-08-03T12:19:53.453Z,17.38
2022-08-03T12:22:35.374Z,17.33
2022-08-03T12:25:08.163Z,17.31
2022-08-03T12:27:39.372Z,17.37
2022-08-03T12:30:11.750Z,17.37
2022-08-03T12:32:42.494Z,17.34
2022-08-03T12:35:13.724Z,17.22
2022-08-03T12:37:51.712Z,17.36
2022-08-03T12:40:30.158Z,17.37
2022-08-03T12:43:02.480Z,17.37
2022-08-03T12:45:33.779Z,17.37
2022-08-03T12:48:05.172Z,17.31
2022-08-03T12:50:36.889Z,17.32
2022-08-03T12:53:11.092Z,17.39
2022-08-03T12:56:04.443Z,17.37
2022-08-03T12:58:37.693Z,17.36
2022-08-03T13:01:10.630Z,17.33
2022-08-03T13:03:50.226Z,17.22
2022-08-03T13:06:25.093Z,17.22
2022-08-03T13:09:06.359Z,17.22
2022-08-03T13:11:57.402Z,17.19
2022-08-03T13:14:29.434Z,17.20
2022-08-03T13:17:00.335Z,17.23
2022-08-03T13:19:31.057Z,17.22
2022-08-03T13:22:03.920Z,17.21
2022-08-03T13:24:36.413Z,17.20
2022-08-03T13:28:02.117Z,17.17
2022-08-03T13:30:00.006Z,17.16
2022-08-03T13:32:31.224Z,17.18
2022-08-03T13:35:03.339Z,17.20
2022-08-03T13:37:34.566Z,17.21
2022-08-03T13:40:06.804Z,17.21
2022-08-03T13:42:39.722Z,17.23
2022-08-03T13:45:12.188Z,17.25
2022-08-03T13:47:42.842Z,17.23
2022-08-03T13:50:13.497Z,17.27
2022-08-03T13:52:59.130Z,17.24
2022-08-03T13:55:29.888Z,17.22
2022-08-03T13:58:07.246Z,17.20
2022-08-03T14:00:38.597Z,17.12
2022-08-03T14:03:14.267Z,17.14
2022-08-03T14:05:46.266Z,17.12
2022-08-03T14:08:16.964Z,17.16
2022-08-03T14:10:48.336Z,17.17
2022-08-03T14:13:20.626Z,17.13
2022-08-03T14:15:51.544Z,17.14
2022-08-03T14:18:28.640Z,17.20
2022-08-03T14:21:06.978Z,17.17
2022-08-03T14:23:39.891Z,17.19
2022-08-03T14:26:11.163Z,17.21
2022-08-03T14:28:43.881Z,17.21
2022-08-03T14:32:09.244Z,17.18
2022-08-03T14:34:05.166Z,17.18
2022-08-03T14:36:35.855Z,17.16
2022-08-03T14:39:06.907Z,17.13
2022-08-03T14:41:37.520Z,17.15
2022-08-03T14:44:09.907Z,17.13
2022-08-03T14:46:40.519Z,17.11
2022-08-03T14:50:38.186Z,17.08
2022-08-03T14:52:02.353Z,17.07
2022-08-03T14:54:33.289Z,17.10
2022-08-03T14:57:03.956Z,17.10
2022-08-03T14:59:55.846Z,17.12
2022-08-03T15:02:27.317Z,17.06
2022-08-03T15:04:58.117Z,17.05
2022-08-03T15:07:28.714Z,17.06
2022-08-03T15:10:00.310Z,17.04
2022-08-03T15:12:33.123Z,17.05
2022-08-03T15:15:05.449Z,17.06
2022-08-03T15:17:36.015Z,17.05
2022-08-03T15:20:23.432Z,16.95
2022-08-03T15:22:57.956Z,17.04
2022-08-03T15:26:02.192Z,17.00
2022-08-03T15:28:19.511Z,16.97
2022-08-03T15:30:51.799Z,16.94
2022-08-03T15:33:22.525Z,16.92
2022-08-03T15:35:53.864Z,16.89
2022-08-03T15:38:25.883Z,16.70
2022-08-03T15:40:57.298Z,16.85
2022-08-03T15:43:28.070Z,16.80
2022-08-03T15:48:51.841Z,16.84
2022-08-03T15:51:22.444Z,16.83
2022-08-03T15:53:53.007Z,16.83
2022-08-03T15:56:23.690Z,16.80
2022-08-03T15:59:03.759Z,16.77
2022-08-03T16:01:45.599Z,16.75
2022-08-03T16:04:16.332Z,16.77
2022-08-03T16:06:47.081Z,16.77
2022-08-03T16:09:24.358Z,16.77
2022-08-03T16:12:15.873Z,16.78
2022-08-03T16:14:55.228Z,16.72
2022-08-03T16:17:27.552Z,16.73
2022-08-03T16:19:58.206Z,16.70
2022-08-03T16:22:28.980Z,16.61
2022-08-03T16:25:00.797Z,16.55
2022-08-03T16:27:37.320Z,16.54
2022-08-03T16:30:22.206Z,16.50
2022-08-03T16:32:54.596Z,16.46
2022-08-03T16:35:25.649Z,16.39
2022-08-03T16:37:56.981Z,16.39
2022-08-03T16:40:28.179Z,16.26
2022-08-03T16:42:58.834Z,16.41
2022-08-03T16:45:29.518Z,16.44
2022-08-03T16:48:05.376Z,16.30
2022-08-03T16:50:37.736Z,16.35
2022-08-03T16:53:09.739Z,16.43
2022-08-03T16:55:49.016Z,16.37
2022-08-03T16:58:34.459Z,16.44
2022-08-03T17:01:24.314Z,16.45
2022-08-03T17:04:03.258Z,16.42
2022-08-03T17:06:36.942Z,16.37
2022-08-03T17:09:09.875Z,16.25
2022-08-03T17:11:47.238Z,16.31
2022-08-03T17:14:21.993Z,16.34
2022-08-03T17:16:54.741Z,16.24
2022-08-03T17:19:28.152Z,15.93
2022-08-03T17:22:04.686Z,16.30
2022-08-03T17:24:40.990Z,16.15
2022-08-03T17:27:23.104Z,15.88
2022-08-03T17:30:09.635Z,16.25
2022-08-03T17:32:42.854Z,16.22
2022-08-03T17:35:24.948Z,16.19
2022-08-03T17:38:11.859Z,16.22
2022-08-03T17:40:52.175Z,16.21
2022-08-03T17:44:14.170Z,16.06
2022-08-03T17:46:14.119Z,16.15
2022-08-03T17:48:50.544Z,16.21
2022-08-03T17:51:30.297Z,16.16
2022-08-03T17:54:18.057Z,16.21
2022-08-03T17:56:57.897Z,16.18
2022-08-03T17:59:51.497Z,16.15
2022-08-03T18:02:57.135Z,16.13
2022-08-03T18:06:11.634Z,16.08
2022-08-03T18:08:29.182Z,16.04
2022-08-03T18:11:03.326Z,16.02
2022-08-03T18:13:57.617Z,15.74
2022-08-03T18:16:34.718Z,15.96
2022-08-03T18:19:13.570Z,15.93
2022-08-03T18:22:02.766Z,15.83
2022-08-03T18:24:37.150Z,16.00
2022-08-03T18:27:08.499Z,15.96
2022-08-03T18:29:40.144Z,15.96
2022-08-03T18:32:16.712Z,15.93
2022-08-03T18:34:53.447Z,15.91
2022-08-03T18:37:27.368Z,15.91
2022-08-03T18:40:02.127Z,15.91
2022-08-03T18:42:33.804Z,15.92
2022-08-03T18:45:14.926Z,15.92
2022-08-03T18:48:05.947Z,15.91
2022-08-03T18:50:41.227Z,15.87
2022-08-03T18:54:02.657Z,15.83
2022-08-03T18:56:26.183Z,15.71
2022-08-03T18:59:02.918Z,15.85
2022-08-03T19:02:00.361Z,15.89
2022-08-03T19:04:36.581Z,15.90
2022-08-03T19:07:09.095Z,15.90
2022-08-03T19:09:52.604Z,15.90
2022-08-03T19:12:32.397Z,15.81
2022-08-03T19:15:10.551Z,15.85
2022-08-03T19:17:50.248Z,15.86
2022-08-03T19:20:26.243Z,15.83
2022-08-03T19:22:58.474Z,15.82
2022-08-03T19:25:34.559Z,15.77
2022-08-03T19:28:08.186Z,15.79
2022-08-03T19:30:40.693Z,15.82
2022-08-03T19:33:19.235Z,15.83
2022-08-03T19:35:57.207Z,15.90
2022-08-03T19:38:29.843Z,15.87
2022-08-03T19:41:03.947Z,15.83
2022-08-03T19:43:52.875Z,15.91
2022-08-03T19:46:31.002Z,15.51
2022-08-03T19:49:10.315Z,15.93
2022-08-03T19:52:01.163Z,15.91
2022-08-03T19:54:49.346Z,15.92
2022-08-03T19:57:28.002Z,15.98
2022-08-03T20:00:03.737Z,15.84
2022-08-03T20:02:35.857Z,16.05
2022-08-03T20:05:15.112Z,16.06
2022-08-03T20:07:48.290Z,16.02
2022-08-03T20:10:20.209Z,15.91
2022-08-03T20:12:51.960Z,16.03
2022-08-03T20:15:31.564Z,16.14
2022-08-03T20:18:03.033Z,16.08
2022-08-03T20:20:36.366Z,16.33
2022-08-03T20:23:09.503Z,16.47
2022-08-03T20:25:48.450Z,16.46
2022-08-03T20:28:28.881Z,16.64
2022-08-03T20:31:02.328Z,16.76
2022-08-03T20:33:46.315Z,16.84
2022-08-03T20:36:20.292Z,16.94
2022-08-03T20:38:51.976Z,17.02
2022-08-03T20:41:22.826Z,17.01
2022-08-03T20:43:53.523Z,16.99
2022-08-03T20:46:31.292Z,17.05
2022-08-03T20:49:08.139Z,17.14
2022-08-03T20:51:49.585Z,17.40
2022-08-03T20:54:30.640Z,17.37
2022-08-03T20:57:03.863Z,17.29
2022-08-03T20:59:47.588Z,17.27
2022-08-03T21:02:29.851Z,17.17
2022-08-03T21:05:02.931Z,17.07
2022-08-03T21:07:45.966Z,17.03
2022-08-03T21:10:38.211Z,17.00
2022-08-03T21:13:17.711Z,16.97
2022-08-03T21:16:06.774Z,16.94
2022-08-03T21:18:48.031Z,17.09
2022-08-03T21:21:23.507Z,17.09
2022-08-03T21:23:55.101Z,17.09
2022-08-03T21:26:26.927Z,17.05
2022-08-03T21:28:58.977Z,17.01
2022-08-03T21:31:29.840Z,16.68
2022-08-03T21:34:04.339Z,16.86
2022-08-03T21:36:37.413Z,17.03
2022-08-03T21:39:09.960Z,16.94
2022-08-03T21:41:42.084Z,17.13
2022-08-03T21:44:12.785Z,17.13
2022-08-03T21:46:45.040Z,17.12
2022-08-03T21:50:04.711Z,17.14
2022-08-03T21:52:09.410Z,17.20
2022-08-03T21:54:42.956Z,17.21
2022-08-03T21:57:23.371Z,17.20
2022-08-03T21:59:57.754Z,17.18
2022-08-03T22:02:32.012Z,17.14
2022-08-03T22:05:05.286Z,17.11
2022-08-03T22:07:37.321Z,17.06
2022-08-03T22:10:09.880Z,17.03
2022-08-03T22:12:41.167Z,17.05
2022-08-03T22:15:13.952Z,17.12
2022-08-03T22:17:54.748Z,17.17
2022-08-03T22:20:29.602Z,17.08
2022-08-03T22:23:03.355Z,17.28
2022-08-03T22:25:36.424Z,17.25
2022-08-03T22:28:10.974Z,17.27
2022-08-03T22:30:43.384Z,17.46
2022-08-03T22:33:14.939Z,17.51
2022-08-03T22:35:49.035Z,17.55
2022-08-03T22:38:20.878Z,17.43
2022-08-03T22:40:52.253Z,17.49
2022-08-03T22:43:25.854Z,17.74
2022-08-03T22:46:11.253Z,17.59
2022-08-03T22:48:43.355Z,17.94
2022-08-03T22:51:17.096Z,18.01
2022-08-03T22:53:48.866Z,18.05
2022-08-03T22:56:19.452Z,18.08
2022-08-03T22:58:50.113Z,18.10
2022-08-03T23:01:25.760Z,18.11
2022-08-03T23:04:02.412Z,18.11
2022-08-03T23:06:38.082Z,18.11
2022-08-03T23:09:11.083Z,18.14
2022-08-03T23:11:45.399Z,18.06
2022-08-03T23:14:18.094Z,18.09
2022-08-03T23:16:50.195Z,17.67
2022-08-03T23:19:25.436Z,17.91
2022-08-03T23:22:03.599Z,17.84
2022-08-03T23:24:38.825Z,17.80
2022-08-03T23:27:11.058Z,17.72
2022-08-03T23:29:46.081Z,17.65
2022-08-03T23:32:17.084Z,17.63
2022-08-03T23:35:06.613Z,17.58
2022-08-03T23:38:04.471Z,17.59
2022-08-03T23:40:32.163Z,17.58
2022-08-03T23:43:05.478Z,17.60
2022-08-03T23:45:39.292Z,17.62
2022-08-03T23:48:10.089Z,17.71
2022-08-03T23:50:48.525Z,17.79
2022-08-03T23:53:28.824Z,17.88
2022-08-03T23:56:21.583Z,18.10
2022-08-03T23:59:07.572Z,18.25
